Time;durP1;ratioP1;P1;durP2;ratioP2;P2;SDS_P1;SDS_P2;PMS_P1;PMS_P2;Temp;Humidity;BMP_temperature;BMP_pressure;BME280_temperature;BME280_humidity;BME280_pressure;Samples;Min_cycle;Max_cycle;Signal;HPM_P1;HPM_P2
2021/06/29 00:01:16;;;;;;;24.45;21.80;;;15.70;99.90;;;;;;4984364;28;20102;-87
2021/06/29 00:03:43;;;;;;;24.17;21.40;;;15.60;99.90;;;;;;4973546;28;20065;-86
2021/06/29 00:06:10;;;;;;;29.10;22.73;;;15.60;99.90;;;;;;4956381;28;20043;-86
2021/06/29 00:08:37;;;;;;;23.90;21.33;;;15.70;99.90;;;;;;4974000;28;20047;-87
2021/06/29 00:11:21;;;;;;;24.08;20.70;;;15.60;99.90;;;;;;4980064;28;20046;-87
2021/06/29 00:13:48;;;;;;;23.95;21.25;;;15.70;99.90;;;;;;4973910;28;20150;-85
2021/06/29 00:16:16;;;;;;;23.60;20.95;;;15.70;99.90;;;;;;4974776;28;20612;-86
2021/06/29 00:18:43;;;;;;;21.60;19.13;;;15.70;99.90;;;;;;4973397;28;20066;-87
2021/06/29 00:21:10;;;;;;;18.70;16.17;;;15.70;99.90;;;;;;4973087;28;20046;-88
2021/06/29 00:23:38;;;;;;;16.73;14.45;;;15.70;99.90;;;;;;4980133;28;20138;-87
2021/06/29 00:26:09;;;;;;;20.05;14.70;;;15.70;99.90;;;;;;4973664;28;20050;-87
2021/06/29 00:28:36;;;;;;;16.00;14.43;;;15.80;99.90;;;;;;4961497;28;20616;-87
2021/06/29 00:31:04;;;;;;;16.73;14.88;;;15.80;99.90;;;;;;4964617;28;20134;-87
2021/06/29 00:33:37;;;;;;;18.05;15.73;;;15.80;99.90;;;;;;4959523;28;20083;-86
2021/06/29 00:36:08;;;;;;;17.85;15.98;;;15.80;99.90;;;;;;4975491;28;20047;-86
2021/06/29 00:38:34;;;;;;;16.15;14.00;;;15.80;99.90;;;;;;4973476;28;20043;-85
2021/06/29 00:41:02;;;;;;;14.25;12.82;;;15.80;99.90;;;;;;4960216;28;20050;-86
2021/06/29 00:43:29;;;;;;;14.15;12.05;;;15.80;99.90;;;;;;4936953;29;20115;-86
2021/06/29 00:45:56;;;;;;;12.93;11.63;;;15.80;99.90;;;;;;4957646;28;20074;-87
2021/06/29 00:48:23;;;;;;;12.93;10.82;;;15.80;99.90;;;;;;4957572;28;20110;-85
2021/06/29 00:50:50;;;;;;;13.75;10.77;;;15.80;99.90;;;;;;4978554;28;20050;-86
2021/06/29 00:53:17;;;;;;;16.27;10.45;;;15.80;99.90;;;;;;4975425;28;20055;-88
2021/06/29 00:55:45;;;;;;;14.32;11.45;;;15.80;99.90;;;;;;4978271;28;20112;-86
2021/06/29 00:58:12;;;;;;;14.13;11.30;;;15.80;99.90;;;;;;4979798;28;20338;-87
2021/06/29 01:00:42;;;;;;;18.02;12.13;;;15.80;99.90;;;;;;4975741;28;20116;-88
2021/06/29 01:03:09;;;;;;;14.00;12.48;;;15.80;99.90;;;;;;4970511;28;20086;-87
2021/06/29 01:05:37;;;;;;;14.38;12.98;;;15.80;99.90;;;;;;4968929;28;20230;-86
2021/06/29 01:08:07;;;;;;;13.63;12.23;;;15.80;99.90;;;;;;4967793;28;20520;-86
2021/06/29 01:10:34;;;;;;;13.70;11.77;;;15.80;99.90;;;;;;4975260;28;20153;-88
2021/06/29 01:13:04;;;;;;;12.48;11.18;;;15.80;99.90;;;;;;4955585;28;20525;-85
2021/06/29 01:15:33;;;;;;;11.77;10.52;;;15.80;99.90;;;;;;4972624;28;20047;-86
2021/06/29 01:18:01;;;;;;;13.23;11.23;;;15.80;99.90;;;;;;4971273;28;20190;-86
2021/06/29 01:20:31;;;;;;;12.05;10.82;;;15.80;99.90;;;;;;4970886;28;20043;-87
2021/06/29 01:23:10;;;;;;;13.48;10.60;;;15.80;99.90;;;;;;4967755;28;20134;-86
2021/06/29 01:25:42;;;;;;;15.05;10.95;;;15.70;99.90;;;;;;4962773;28;20075;-86
2021/06/29 01:28:22;;;;;;;13.13;11.73;;;15.80;99.90;;;;;;4954701;28;20117;-86
2021/06/29 01:33:48;;;;;;;16.50;12.02;;;15.70;99.90;;;;;;4959493;28;20046;-88
2021/06/29 01:36:21;;;;;;;12.98;11.45;;;15.80;99.90;;;;;;4973349;28;20039;-85
2021/06/29 01:38:50;;;;;;;11.15;9.60;;;15.80;99.90;;;;;;4956011;28;20061;-84
2021/06/29 01:41:21;;;;;;;11.65;10.45;;;15.80;99.90;;;;;;4973616;28;20053;-84
2021/06/29 01:43:56;;;;;;;11.57;10.30;;;15.80;99.90;;;;;;4960808;28;20050;-87
2021/06/29 01:46:25;;;;;;;12.45;10.35;;;15.80;99.90;;;;;;4967527;28;20047;-86
2021/06/29 01:48:55;;;;;;;9.73;8.73;;;15.80;99.90;;;;;;4969697;28;20083;-86
2021/06/29 01:51:23;;;;;;;8.90;8.00;;;15.80;99.90;;;;;;4972725;28;20047;-85
2021/06/29 01:53:51;;;;;;;12.38;8.18;;;15.80;99.90;;;;;;4975584;28;20145;-86
2021/06/29 01:56:35;;;;;;;12.40;8.18;;;15.80;99.90;;;;;;4974533;28;20352;-88
2021/06/29 01:59:08;;;;;;;8.65;7.68;;;15.80;99.90;;;;;;4970833;28;20384;-86
2021/06/29 02:01:37;;;;;;;7.03;6.32;;;15.80;99.90;;;;;;4972326;28;20056;-89
2021/06/29 02:04:11;;;;;;;6.32;5.30;;;15.80;99.90;;;;;;4955384;28;20353;-87
2021/06/29 02:06:41;;;;;;;6.90;6.05;;;15.80;99.90;;;;;;4966522;28;20074;-87
2021/06/29 02:09:09;;;;;;;5.70;5.18;;;15.90;99.90;;;;;;4960122;28;20047;-86
2021/06/29 02:11:52;;;;;;;7.82;5.90;;;15.90;99.90;;;;;;4972106;28;20138;-87
2021/06/29 02:14:18;;;;;;;7.53;5.60;;;15.80;99.90;;;;;;4970653;28;20070;-86
2021/06/29 02:16:45;;;;;;;6.03;5.22;;;15.80;99.90;;;;;;4967041;28;20077;-88
2021/06/29 02:19:12;;;;;;;7.57;5.45;;;15.80;99.90;;;;;;4970748;28;20047;-88
2021/06/29 02:21:40;;;;;;;8.15;5.93;;;15.80;99.90;;;;;;4974886;28;20109;-86
2021/06/29 02:24:07;;;;;;;6.75;5.68;;;15.70;99.90;;;;;;4970529;28;20047;-88
2021/06/29 02:26:39;;;;;;;7.00;6.30;;;15.70;99.90;;;;;;4954992;28;20065;-88
2021/06/29 02:29:06;;;;;;;9.52;7.10;;;15.60;99.90;;;;;;4957539;28;20057;-88
2021/06/29 02:31:33;;;;;;;7.13;6.50;;;15.60;99.90;;;;;;4975336;28;20057;-89
2021/06/29 02:34:00;;;;;;;7.25;6.40;;;15.60;99.90;;;;;;4942974;28;20454;-88
2021/06/29 02:36:27;;;;;;;8.55;7.20;;;15.60;99.90;;;;;;4958963;28;20141;-87
2021/06/29 02:38:56;;;;;;;7.60;6.90;;;15.60;99.90;;;;;;4968320;28;20764;-86
2021/06/29 02:41:26;;;;;;;8.13;7.38;;;15.60;99.90;;;;;;4974829;28;20087;-86
2021/06/29 02:43:54;;;;;;;10.43;6.85;;;15.70;99.90;;;;;;4974678;28;20490;-86
2021/06/29 02:46:23;;;;;;;9.65;7.93;;;15.70;99.90;;;;;;4967193;28;20376;-86
2021/06/29 02:48:53;;;;;;;8.85;7.70;;;15.70;99.90;;;;;;4962684;28;20050;-87
2021/06/29 02:51:20;;;;;;;11.05;8.50;;;15.70;99.90;;;;;;4979039;28;20046;-86
2021/06/29 02:53:47;;;;;;;9.65;8.20;;;15.70;99.90;;;;;;4978126;28;20043;-85
2021/06/29 02:59:14;;;;;;;11.15;9.18;;;15.70;99.90;;;;;;4977302;28;20047;-88
2021/06/29 03:01:42;;;;;;;12.65;9.70;;;15.70;99.90;;;;;;4975098;28;20149;-87
2021/06/29 03:04:10;;;;;;;10.70;9.25;;;15.60;99.90;;;;;;4962543;28;20148;-88
2021/06/29 03:06:37;;;;;;;13.00;9.82;;;15.60;99.90;;;;;;4974119;28;20060;-87
2021/06/29 03:09:07;;;;;;;14.75;9.63;;;15.60;99.90;;;;;;4982073;28;20054;-89
2021/06/29 03:11:39;;;;;;;14.98;10.27;;;15.60;99.90;;;;;;4963034;28;20739;-88
2021/06/29 03:14:07;;;;;;;11.10;9.43;;;15.60;99.90;;;;;;4975340;28;20388;-87
2021/06/29 03:16:36;;;;;;;15.93;10.23;;;15.50;99.90;;;;;;4974982;28;20043;-88
2021/06/29 03:19:03;;;;;;;10.82;9.73;;;15.50;99.90;;;;;;4959163;28;20043;-88
2021/06/29 03:21:30;;;;;;;10.35;9.27;;;15.40;99.90;;;;;;4980613;28;20371;-88
2021/06/29 03:24:02;;;;;;;14.25;10.02;;;15.50;99.90;;;;;;4968419;28;20047;-89
2021/06/29 03:26:32;;;;;;;19.33;10.98;;;15.50;99.90;;;;;;4960832;28;20050;-87
2021/06/29 03:29:04;;;;;;;14.80;11.93;;;15.50;99.90;;;;;;4967455;28;20464;-87
2021/06/29 03:31:32;;;;;;;14.98;12.60;;;15.40;99.90;;;;;;4966156;28;20076;-87
2021/06/29 03:34:00;;;;;;;13.85;12.43;;;15.40;99.90;;;;;;4974559;28;20046;-87
2021/06/29 03:36:27;;;;;;;12.93;10.90;;;15.40;99.90;;;;;;4964783;28;20082;-87
2021/06/29 03:38:54;;;;;;;11.82;10.63;;;15.40;99.90;;;;;;4955669;28;20043;-86
2021/06/29 03:41:22;;;;;;;13.35;11.80;;;15.50;99.90;;;;;;4974335;28;20118;-88
2021/06/29 03:43:49;;;;;;;16.50;12.35;;;15.50;99.90;;;;;;4974539;28;20057;-87
2021/06/29 03:46:18;;;;;;;19.23;12.93;;;15.50;99.90;;;;;;4958575;28;20141;-86
2021/06/29 03:48:45;;;;;;;13.93;12.60;;;15.50;99.90;;;;;;4974186;28;20058;-87
2021/06/29 03:51:12;;;;;;;14.63;12.63;;;15.50;99.90;;;;;;4973435;28;20047;-87
2021/06/29 03:53:41;;;;;;;20.42;14.10;;;15.50;99.90;;;;;;4957711;28;20463;-87
2021/06/29 03:56:42;;;;;;;18.65;14.48;;;15.50;99.90;;;;;;4974321;28;20042;-87
2021/06/29 03:59:06;;;;;;;19.92;14.95;;;15.50;99.90;;;;;;4969923;28;20146;-87
2021/06/29 04:01:33;;;;;;;18.33;14.47;;;15.50;99.90;;;;;;4977376;28;20058;-87
2021/06/29 04:04:02;;;;;;;17.73;15.35;;;15.50;99.90;;;;;;4978906;28;20368;-87
2021/06/29 04:06:32;;;;;;;20.05;15.60;;;15.50;99.90;;;;;;4957100;28;20178;-88
2021/06/29 04:09:00;;;;;;;19.67;16.52;;;15.40;99.90;;;;;;4973083;28;20499;-87
2021/06/29 04:11:28;;;;;;;16.58;14.93;;;15.40;99.90;;;;;;4973315;28;20074;-88
2021/06/29 04:13:55;;;;;;;20.73;15.32;;;15.30;99.90;;;;;;4968684;28;20142;-88
2021/06/29 04:16:27;;;;;;;15.50;12.73;;;15.30;99.90;;;;;;4957203;28;20042;-86
2021/06/29 04:18:54;;;;;;;14.43;11.43;;;15.20;99.90;;;;;;4957681;28;20069;-87
2021/06/29 04:21:25;;;;;;;12.85;10.93;;;15.10;99.90;;;;;;4972584;28;20055;-90
2021/06/29 04:23:53;;;;;;;15.95;13.20;;;15.10;99.90;;;;;;4973277;28;20448;-89
2021/06/29 04:26:21;;;;;;;13.00;11.70;;;15.10;99.90;;;;;;4971192;28;20135;-86
2021/06/29 04:28:49;;;;;;;8.55;7.43;;;15.30;99.90;;;;;;4954889;28;20051;-86
2021/06/29 04:31:18;;;;;;;6.38;4.95;;;15.40;99.90;;;;;;4956248;28;20058;-86
2021/06/29 04:33:46;;;;;;;5.85;5.20;;;15.40;99.90;;;;;;4974965;28;20085;-87
2021/06/29 04:36:13;;;;;;;6.32;5.50;;;15.50;99.90;;;;;;4972441;28;20148;-88
2021/06/29 04:38:42;;;;;;;8.43;7.40;;;15.50;99.90;;;;;;4973795;28;20061;-88
2021/06/29 04:41:09;;;;;;;7.20;6.50;;;15.60;99.90;;;;;;4982822;28;20049;-86
2021/06/29 04:43:39;;;;;;;8.90;7.55;;;15.50;99.90;;;;;;4949515;28;20058;-86
2021/06/29 04:46:11;;;;;;;12.40;8.60;;;15.60;99.90;;;;;;4940420;28;20062;-86
2021/06/29 04:48:39;;;;;;;13.77;8.70;;;15.60;99.90;;;;;;4974488;28;20063;-86
2021/06/29 04:51:07;;;;;;;16.05;10.52;;;15.60;99.90;;;;;;4971036;28;20107;-88
2021/06/29 04:53:34;;;;;;;12.98;9.70;;;15.60;99.90;;;;;;4955951;28;20149;-86
2021/06/29 04:56:01;;;;;;;13.35;9.77;;;15.50;99.90;;;;;;4956683;28;20057;-86
2021/06/29 04:58:28;;;;;;;9.88;8.93;;;15.50;99.90;;;;;;4961677;28;20186;-86
2021/06/29 05:00:57;;;;;;;10.45;9.05;;;15.50;99.90;;;;;;4973858;28;20042;-85
2021/06/29 05:03:25;;;;;;;14.18;9.65;;;15.50;99.90;;;;;;4972293;28;20074;-86
2021/06/29 05:05:55;;;;;;;12.00;9.40;;;15.50;99.90;;;;;;4973817;28;20078;-86
2021/06/29 05:08:22;;;;;;;13.23;9.55;;;15.50;99.90;;;;;;4968106;28;20085;-86
2021/06/29 05:10:49;;;;;;;9.98;8.98;;;15.50;99.90;;;;;;4951237;28;20531;-86
2021/06/29 05:13:19;;;;;;;13.63;10.02;;;15.60;99.90;;;;;;4970540;28;20236;-86
2021/06/29 05:15:46;;;;;;;10.25;9.25;;;15.60;99.90;;;;;;4970577;28;20047;-86
2021/06/29 05:18:13;;;;;;;10.32;9.20;;;15.60;99.90;;;;;;4972033;28;20525;-86
2021/06/29 05:20:46;;;;;;;9.40;8.00;;;15.60;99.90;;;;;;4954986;28;20117;-86
2021/06/29 05:23:12;;;;;;;16.83;10.98;;;15.60;99.90;;;;;;4968950;28;20145;-86
2021/06/29 05:25:40;;;;;;;12.75;10.40;;;15.60;99.90;;;;;;4978987;28;20129;-86
2021/06/29 05:28:09;;;;;;;11.57;9.80;;;15.70;99.90;;;;;;4976092;28;20133;-85
2021/06/29 05:30:36;;;;;;;9.57;8.68;;;15.70;99.90;;;;;;4972260;28;20046;-86
2021/06/29 05:33:03;;;;;;;9.77;8.77;;;15.70;99.90;;;;;;4972924;28;20461;-87
2021/06/29 05:35:33;;;;;;;11.02;8.98;;;15.80;99.90;;;;;;4954301;28;20058;-86
2021/06/29 05:38:00;;;;;;;10.07;9.02;;;15.80;99.90;;;;;;4967573;28;20145;-88
2021/06/29 05:40:27;;;;;;;14.15;9.43;;;15.90;99.90;;;;;;4972873;28;20062;-89
2021/06/29 05:42:54;;;;;;;16.27;8.73;;;15.90;99.90;;;;;;4964183;28;20042;-91
2021/06/29 05:45:25;;;;;;;9.68;8.35;;;15.90;99.90;;;;;;4954796;28;20047;-90
2021/06/29 05:47:53;;;;;;;8.50;7.70;;;16.00;99.90;;;;;;4954091;28;20047;-89
2021/06/29 05:50:21;;;;;;;11.43;8.93;;;16.10;99.90;;;;;;4952819;28;20046;-89
2021/06/29 05:52:49;;;;;;;9.15;6.65;;;16.20;99.90;;;;;;4956149;28;20117;-89
2021/06/29 05:55:16;;;;;;;7.85;6.72;;;16.30;99.90;;;;;;4971224;28;20093;-88
2021/06/29 05:57:43;;;;;;;6.38;5.78;;;16.40;99.90;;;;;;4968104;28;20125;-91
2021/06/29 06:00:16;;;;;;;6.10;4.32;;;16.50;99.90;;;;;;4971079;28;20552;-91
2021/06/29 06:02:43;;;;;;;7.55;5.18;;;16.50;99.90;;;;;;4971586;28;20051;-91
2021/06/29 06:05:11;;;;;;;7.53;4.57;;;16.60;99.90;;;;;;4972324;28;20089;-92
2021/06/29 06:07:57;;;;;;;8.32;4.13;;;16.70;99.90;;;;;;4957792;28;20138;-91
2021/06/29 06:10:24;;;;;;;4.22;3.83;;;16.80;99.90;;;;;;4953712;28;20050;-90
2021/06/29 06:12:53;;;;;;;8.18;4.22;;;16.90;99.90;;;;;;4969969;28;20050;-92
2021/06/29 06:15:28;;;;;;;8.68;5.93;;;17.10;99.90;;;;;;4967090;28;20074;-91
2021/06/29 06:18:23;;;;;;;6.53;4.65;;;17.20;99.90;;;;;;4958326;28;20111;-92
2021/06/29 06:21:10;;;;;;;4.20;3.55;;;17.30;99.90;;;;;;4945643;28;20073;-89
2021/06/29 06:23:38;;;;;;;4.03;3.65;;;17.30;99.90;;;;;;4969618;28;20050;-90
2021/06/29 06:26:05;;;;;;;7.30;3.35;;;17.30;99.90;;;;;;4969071;28;20050;-91
2021/06/29 06:28:36;;;;;;;7.10;4.03;;;17.20;99.90;;;;;;4965792;28;20057;-88
2021/06/29 06:31:06;;;;;;;5.57;4.60;;;17.20;99.90;;;;;;4970429;28;20047;-89
2021/06/29 06:33:35;;;;;;;6.72;5.93;;;17.30;99.90;;;;;;4954634;28;20153;-89
2021/06/29 06:36:11;;;;;;;6.03;3.45;;;17.40;99.90;;;;;;4957325;28;20439;-90
2021/06/29 06:38:38;;;;;;;3.20;2.35;;;17.60;99.90;;;;;;4953854;28;20054;-88
2021/06/29 06:41:13;;;;;;;3.45;2.85;;;17.70;99.90;;;;;;4974114;28;20483;-90
2021/06/29 06:43:43;;;;;;;3.20;2.30;;;17.80;99.90;;;;;;4970581;28;20141;-91
2021/06/29 06:46:11;;;;;;;3.10;2.30;;;18.00;99.90;;;;;;4954482;28;20539;-89
2021/06/29 06:48:38;;;;;;;3.08;1.90;;;18.50;99.90;;;;;;4970783;28;20481;-92
2021/06/29 06:51:17;;;;;;;2.97;1.60;;;18.80;99.90;;;;;;4971302;28;20423;-90
2021/06/29 06:53:46;;;;;;;2.75;1.80;;;19.10;99.90;;;;;;4970401;28;20097;-90
2021/06/29 06:56:16;;;;;;;2.10;1.80;;;19.20;99.90;;;;;;4974328;28;20043;-90
2021/06/29 06:58:45;;;;;;;4.07;1.85;;;19.30;99.90;;;;;;4972744;28;20047;-91
2021/06/29 07:01:15;;;;;;;3.90;1.60;;;19.50;99.90;;;;;;4971474;28;20082;-91
2021/06/29 07:03:44;;;;;;;2.47;1.30;;;19.60;99.90;;;;;;4972199;28;20066;-91
2021/06/29 07:06:22;;;;;;;2.30;1.30;;;19.60;99.90;;;;;;4972966;28;20058;-93
2021/06/29 07:08:59;;;;;;;1.40;1.30;;;19.50;99.90;;;;;;4973707;28;20106;-92
2021/06/29 07:11:32;;;;;;;2.20;1.85;;;19.70;99.90;;;;;;4954026;28;20138;-94
2021/06/29 07:14:02;;;;;;;;;;;19.70;99.90;;;;;;4972854;28;20074;-93
2021/06/29 07:16:32;;;;;;;2.53;1.77;;;19.90;99.90;;;;;;4954282;28;19949;-93
2021/06/29 07:19:16;;;;;;;2.72;1.40;;;20.00;99.90;;;;;;4974867;28;20057;-92
2021/06/29 07:22:09;;;;;;;2.67;1.30;;;20.10;99.90;;;;;;4959655;28;20081;-94
2021/06/29 07:24:47;;;;;;;3.53;1.45;;;20.40;99.90;;;;;;4957137;28;20325;-93
2021/06/29 07:27:21;;;;;;;2.47;1.67;;;20.70;99.90;;;;;;4960045;28;20046;-95
2021/06/29 07:30:45;;;;;;;3.05;1.30;;;20.90;99.90;;;;;;4977666;28;20146;-93
2021/06/29 07:34:07;;;;;;;3.97;1.85;;;21.00;99.90;;;;;;4914010;29;20063;-93
2021/06/29 07:37:07;;;;;;;1.63;1.23;;;21.10;99.90;;;;;;4920532;29;20056;-95
2021/06/29 07:39:50;;;;;;;1.40;1.08;;;21.10;99.90;;;;;;4916576;29;20342;-94
2021/06/29 07:42:25;;;;;;;1.52;1.30;;;21.20;99.90;;;;;;4901888;29;20044;-93
2021/06/29 07:45:13;;;;;;;2.83;1.00;;;21.30;99.90;;;;;;4908333;29;20058;-93
2021/06/29 07:48:13;;;;;;;1.43;1.20;;;21.40;99.90;;;;;;4902803;29;20359;-93
2021/06/29 07:51:06;;;;;;;2.17;1.52;;;21.30;99.90;;;;;;4935320;28;20286;-94
2021/06/29 07:53:37;;;;;;;1.30;1.20;;;21.30;99.90;;;;;;4978980;28;20093;-92
2021/06/29 07:56:15;;;;;;;;;;;;;;;;;;;;;
2021/06/29 07:58:50;;;;;;;3.00;1.13;;;21.90;99.90;;;;;;4982172;28;20046;-89
2021/06/29 08:01:17;;;;;;;2.28;1.08;;;22.20;99.90;;;;;;4949405;28;20536;-88
2021/06/29 08:03:47;;;;;;;0.75;0.70;;;22.70;99.90;;;;;;4940695;29;20054;-91
2021/06/29 08:06:21;;;;;;;3.33;1.27;;;22.70;99.90;;;;;;4940027;29;20054;-92
2021/06/29 08:08:51;;;;;;;1.08;0.80;;;22.60;99.90;;;;;;4955169;28;20063;-93
2021/06/29 08:11:23;;;;;;;1.83;1.10;;;22.60;99.90;;;;;;4941079;29;20115;-91
2021/06/29 08:13:52;;;;;;;1.40;0.98;;;22.20;99.90;;;;;;4954394;28;20055;-91
2021/06/29 08:16:19;;;;;;;1.50;1.15;;;22.00;99.90;;;;;;4938474;29;20043;-94
2021/06/29 08:19:19;;;;;;;1.20;1.10;;;22.30;99.90;;;;;;4945230;28;20110;-92
2021/06/29 08:21:55;;;;;;;0.85;0.80;;;22.50;99.90;;;;;;4966805;28;20042;-92
2021/06/29 08:24:22;;;;;;;1.75;0.90;;;22.80;99.90;;;;;;4948127;28;20087;-91
2021/06/29 08:26:49;;;;;;;1.65;0.90;;;22.80;99.90;;;;;;4952347;28;20051;-91
2021/06/29 08:29:16;;;;;;;0.95;0.82;;;22.90;99.90;;;;;;4952756;29;20118;-89
2021/06/29 08:31:43;;;;;;;0.70;0.70;;;22.80;99.90;;;;;;4943487;29;20066;-92
2021/06/29 08:34:10;;;;;;;2.53;0.73;;;23.00;99.90;;;;;;4955771;28;20047;-93
2021/06/29 08:36:41;;;;;;;1.65;0.80;;;23.20;99.90;;;;;;4952931;29;20106;-96
2021/06/29 08:39:14;;;;;;;2.80;0.80;;;23.20;97.90;;;;;;4940566;29;20054;-95
2021/06/29 08:41:44;;;;;;;3.45;0.93;;;23.60;98.20;;;;;;4963641;28;20517;-92
2021/06/29 08:44:17;;;;;;;1.40;0.85;;;24.00;98.10;;;;;;4959314;28;20115;-95
2021/06/29 08:46:44;;;;;;;4.43;0.80;;;24.30;96.60;;;;;;4962940;28;20477;-92
2021/06/29 08:49:12;;;;;;;0.88;0.80;;;24.60;96.60;;;;;;4954111;28;20062;-94
2021/06/29 08:51:51;;;;;;;2.78;1.13;;;24.90;97.30;;;;;;4955312;29;20078;-92
2021/06/29 08:54:21;;;;;;;2.95;1.25;;;24.90;94.30;;;;;;4952243;29;20086;-93
2021/06/29 08:56:48;;;;;;;1.73;0.65;;;25.00;94.70;;;;;;4949403;29;20079;-91
2021/06/29 08:59:18;;;;;;;2.05;0.90;;;25.40;95.40;;;;;;4952557;28;20180;-92
2021/06/29 09:01:45;;;;;;;1.13;0.90;;;25.40;93.40;;;;;;4944755;28;20138;-92
2021/06/29 09:04:15;;;;;;;3.92;0.85;;;25.60;90.70;;;;;;4971432;28;20043;-90
2021/06/29 09:06:45;;;;;;;1.08;0.95;;;25.40;89.40;;;;;;4955886;28;20047;-90
2021/06/29 09:09:28;;;;;;;1.10;0.85;;;24.80;92.00;;;;;;4972462;28;20057;-92
2021/06/29 09:11:58;;;;;;;1.00;0.88;;;24.60;91.60;;;;;;4961174;28;20183;-90
2021/06/29 09:14:29;;;;;;;3.97;0.98;;;24.90;90.10;;;;;;4956980;28;20046;-90
2021/06/29 09:17:21;;;;;;;1.17;1.08;;;24.70;91.40;;;;;;4972092;28;20051;-90
2021/06/29 09:19:48;;;;;;;1.20;1.10;;;23.80;93.70;;;;;;4955761;28;20085;-92
2021/06/29 09:22:32;;;;;;;1.58;1.20;;;24.10;92.70;;;;;;4972540;28;20129;-91
2021/06/29 09:25:00;;;;;;;1.98;0.80;;;24.30;91.20;;;;;;4968053;28;20209;-90
2021/06/29 09:27:47;;;;;;;0.80;0.80;;;24.50;91.40;;;;;;4971603;28;20081;-92
2021/06/29 09:30:27;;;;;;;1.95;0.95;;;24.70;90.70;;;;;;4971734;28;20168;-92
2021/06/29 09:33:20;;;;;;;1.67;1.15;;;24.50;92.00;;;;;;4955722;28;20126;-90
2021/06/29 09:35:52;;;;;;;2.47;1.00;;;24.10;93.00;;;;;;4972664;28;20047;-92
2021/06/29 09:38:32;;;;;;;1.02;0.90;;;23.90;93.60;;;;;;4970583;28;20038;-93
2021/06/29 09:41:05;;;;;;;1.70;1.00;;;24.90;93.90;;;;;;4964921;28;20043;-95
2021/06/29 09:43:39;;;;;;;;;;;26.20;87.10;;;;;;4972531;28;20043;-92
2021/06/29 09:46:17;;;;;;;1.45;1.02;;;27.30;82.60;;;;;;4969379;28;19926;-88
2021/06/29 09:48:53;;;;;;;1.75;0.98;;;27.30;79.20;;;;;;4971940;28;20043;-88
2021/06/29 09:51:48;;;;;;;2.40;1.10;;;27.10;77.00;;;;;;4963539;28;20061;-88
2021/06/29 09:54:17;;;;;;;1.27;0.65;;;27.80;83.00;;;;;;4971715;28;20173;-87
2021/06/29 09:56:47;;;;;;;2.85;0.90;;;29.10;70.50;;;;;;4971494;28;20536;-86
2021/06/29 09:59:26;;;;;;;2.53;0.70;;;29.80;67.30;;;;;;4971243;28;20109;-88
2021/06/29 10:02:11;;;;;;;4.88;0.85;;;30.20;70.30;;;;;;4954586;28;20047;-87
2021/06/29 10:04:41;;;;;;;1.20;0.60;;;30.90;66.90;;;;;;4964100;28;20065;-89
2021/06/29 10:07:19;;;;;;;0.98;0.75;;;31.00;59.50;;;;;;4973507;28;20125;-89
2021/06/29 10:10:18;;;;;;;0.75;0.70;;;31.50;64.90;;;;;;4976894;28;20042;-88
2021/06/29 10:12:45;;;;;;;0.88;0.70;;;31.70;62.20;;;;;;4955831;28;20080;-88
2021/06/29 10:15:15;;;;;;;1.60;0.60;;;31.00;61.40;;;;;;4971372;28;20058;-89
2021/06/29 10:17:42;;;;;;;1.30;0.85;;;30.20;62.10;;;;;;4954179;28;20070;-90
2021/06/29 10:20:25;;;;;;;1.38;0.82;;;29.40;64.80;;;;;;4972262;28;20046;-92
2021/06/29 10:23:11;;;;;;;1.15;0.82;;;28.40;68.30;;;;;;4956455;28;20069;-92
2021/06/29 10:25:39;;;;;;;3.42;0.90;;;28.30;71.70;;;;;;4971735;28;20047;-92
2021/06/29 10:28:14;;;;;;;1.20;0.90;;;29.00;69.80;;;;;;4970596;28;20444;-91
2021/06/29 10:30:44;;;;;;;1.52;0.65;;;30.00;69.50;;;;;;4946065;29;20069;-93
2021/06/29 10:33:19;;;;;;;1.58;0.70;;;30.80;64.00;;;;;;4954539;28;20128;-90
2021/06/29 10:35:49;;;;;;;2.25;1.08;;;30.80;61.50;;;;;;4970144;28;20137;-91
2021/06/29 10:38:23;;;;;;;1.98;0.77;;;30.40;63.00;;;;;;4952554;28;20074;-91
2021/06/29 10:40:56;;;;;;;1.83;1.00;;;30.10;64.00;;;;;;4954428;28;20089;-89
2021/06/29 10:43:56;;;;;;;2.53;0.90;;;29.70;64.40;;;;;;4953592;28;20105;-90
2021/06/29 10:46:39;;;;;;;;;;;;;;;;;;;;;
2021/06/29 10:49:43;;;;;;;;;;;;;;;;;;;;;
2021/06/29 10:52:34;;;;;;;0.80;0.70;;;30.90;59.60;;;;;;4975668;28;20054;-91
2021/06/29 10:55:04;;;;;;;0.68;0.60;;;31.40;60.90;;;;;;4976575;28;20070;-92
2021/06/29 10:57:45;;;;;;;1.20;0.70;;;31.40;55.30;;;;;;4987959;28;20117;-90
2021/06/29 11:00:18;;;;;;;0.95;0.60;;;31.90;58.00;;;;;;4988003;28;20050;-88
2021/06/29 11:03:00;;;;;;;1.55;0.88;;;32.00;54.80;;;;;;4990589;28;20074;-89
2021/06/29 11:05:36;;;;;;;1.23;0.90;;;31.80;55.70;;;;;;4968947;28;20077;-90
2021/06/29 11:08:14;;;;;;;2.08;0.90;;;31.60;57.00;;;;;;4989481;28;20392;-90
2021/06/29 11:10:48;;;;;;;4.72;0.90;;;31.60;56.30;;;;;;4988303;28;20105;-89
2021/06/29 11:13:17;;;;;;;0.90;0.70;;;30.90;59.10;;;;;;4970208;28;20508;-89
2021/06/29 11:15:55;;;;;;;1.02;0.80;;;29.60;58.40;;;;;;4986969;28;20075;-88
2021/06/29 11:18:48;;;;;;;6.28;0.75;;;28.80;63.20;;;;;;4983737;28;20047;-89
2021/06/29 11:21:20;;;;;;;0.70;0.60;;;28.10;63.60;;;;;;4984515;28;20588;-91
2021/06/29 11:23:55;;;;;;;3.50;0.90;;;28.20;64.90;;;;;;4985905;28;20073;-89
2021/06/29 11:26:24;;;;;;;1.02;0.98;;;28.10;66.20;;;;;;4971320;28;20054;-90
2021/06/29 11:29:09;;;;;;;5.78;1.00;;;28.10;71.80;;;;;;4985197;28;20043;-92
2021/06/29 11:31:40;;;;;;;3.60;0.82;;;28.10;70.50;;;;;;4978048;28;20035;-90
2021/06/29 11:34:10;;;;;;;1.95;1.10;;;28.60;66.40;;;;;;4977628;28;20409;-91
2021/06/29 11:36:45;;;;;;;1.02;0.80;;;29.10;70.00;;;;;;4961153;28;20342;-89
2021/06/29 11:39:18;;;;;;;1.02;0.75;;;29.80;67.30;;;;;;4974037;28;20066;-93
2021/06/29 11:42:05;;;;;;;2.25;1.05;;;30.90;57.40;;;;;;4975377;28;20658;-93
2021/06/29 11:44:42;;;;;;;2.38;0.90;;;32.10;59.90;;;;;;4974163;28;20066;-91
2021/06/29 11:47:14;;;;;;;1.67;0.70;;;32.30;55.10;;;;;;4973771;28;20043;-91
2021/06/29 11:50:00;;;;;;;2.47;1.25;;;32.10;59.90;;;;;;4974768;28;20138;-92
2021/06/29 11:52:33;;;;;;;5.15;1.10;;;31.50;59.70;;;;;;4981304;28;20058;-91
2021/06/29 11:55:20;;;;;;;1.92;0.80;;;30.80;59.60;;;;;;4973507;28;20536;-90
2021/06/29 11:57:56;;;;;;;2.65;0.85;;;30.70;60.40;;;;;;4956941;28;20042;-88
2021/06/29 12:00:36;;;;;;;6.60;1.10;;;30.10;63.60;;;;;;4973739;28;20046;-89
2021/06/29 12:03:08;;;;;;;2.60;1.02;;;29.80;63.70;;;;;;4972936;28;20051;-89
2021/06/29 12:05:37;;;;;;;2.15;0.90;;;29.70;59.00;;;;;;4973437;28;20070;-89
2021/06/29 12:08:10;;;;;;;1.90;1.20;;;29.70;59.40;;;;;;4973300;28;20051;-90
2021/06/29 12:10:40;;;;;;;1.92;0.95;;;28.60;62.30;;;;;;4973494;28;20487;-89
2021/06/29 12:13:12;;;;;;;1.73;0.93;;;28.80;63.60;;;;;;4974152;28;20130;-90
2021/06/29 12:15:47;;;;;;;3.28;0.82;;;29.00;63.80;;;;;;4973643;28;20062;-89
2021/06/29 12:18:37;;;;;;;1.10;0.93;;;28.60;63.90;;;;;;4971950;28;20043;-87
2021/06/29 12:21:08;;;;;;;1.48;0.88;;;27.80;63.80;;;;;;4972230;28;20078;-89
2021/06/29 12:23:36;;;;;;;1.52;1.00;;;26.70;68.70;;;;;;4972887;28;20586;-88
2021/06/29 12:26:07;;;;;;;3.97;1.13;;;26.20;70.60;;;;;;4972798;28;20054;-88
2021/06/29 12:28:39;;;;;;;2.22;1.00;;;25.80;71.10;;;;;;4956608;28;20055;-86
2021/06/29 12:31:10;;;;;;;2.60;1.00;;;25.30;72.00;;;;;;4971527;28;20405;-88
2021/06/29 12:33:47;;;;;;;1.70;1.20;;;24.80;76.50;;;;;;4955779;28;20043;-88
2021/06/29 12:36:22;;;;;;;3.47;1.10;;;24.10;80.50;;;;;;4968922;28;20157;-85
2021/06/29 12:38:58;;;;;;;5.30;0.90;;;23.40;83.80;;;;;;4969915;28;20530;-88
2021/06/29 12:41:30;;;;;;;2.17;0.50;;;22.50;81.40;;;;;;4971598;28;20051;-90
2021/06/29 12:43:58;;;;;;;;;;;20.30;79.00;;;;;;4973809;28;20061;-89
2021/06/29 12:46:39;;;;;;;1.40;0.65;;;18.50;88.80;;;;;;4955830;28;20051;-90
2021/06/29 12:49:21;;;;;;;2.80;0.77;;;17.90;93.80;;;;;;4954382;28;20062;-88
2021/06/29 12:51:53;;;;;;;4.95;1.05;;;17.00;99.90;;;;;;4980399;28;20078;-92
2021/06/29 12:54:26;;;;;;;6.63;1.10;;;16.10;99.90;;;;;;4958302;28;20063;-94
2021/06/29 12:57:18;;;;;;;5.45;1.00;;;15.70;99.90;;;;;;4970064;28;20047;-90
2021/06/29 12:59:56;;;;;;;8.95;1.02;;;15.40;99.90;;;;;;4979862;28;20042;-90
2021/06/29 13:02:27;;;;;;;12.82;1.92;;;15.20;99.90;;;;;;4940700;28;20047;-93
2021/06/29 13:05:00;;;;;;;1.15;1.08;;;15.10;99.90;;;;;;4971335;28;20042;-91
2021/06/29 13:07:50;;;;;;;6.28;1.33;;;14.90;99.90;;;;;;4956855;28;20415;-94
2021/06/29 13:10:20;;;;;;;6.38;1.38;;;14.80;99.90;;;;;;4955997;28;20066;-93
2021/06/29 13:12:47;;;;;;;2.45;1.40;;;14.70;99.90;;;;;;4950245;28;20109;-94
2021/06/29 13:15:15;;;;;;;3.22;1.05;;;14.60;99.90;;;;;;4972120;28;20070;-92
2021/06/29 13:17:47;;;;;;;2.70;1.73;;;14.60;99.90;;;;;;4973122;28;20113;-92
2021/06/29 13:20:18;;;;;;;;;;;14.50;99.90;;;;;;4970165;28;20117;-91